This is the latest recevied weather packets stored in our database for station/object DO1BDB-12. If no packets are shown the sender has not sent any weather packets the latest 10 day(s).
| Time | Temp. | Humidity | Pressure | Rain* | Wind** | Luminosity | Snow |
|---|---|---|---|---|---|---|---|
| 1777381367 | 18.33° C | 29% | 102.7 hPa | - | - | - | - |
| 1777381302 | 19.44° C | 28% | 102.7 hPa | - | - | - | - |
| 1777381235 | 20° C | 29% | 102.7 hPa | - | - | - | - |
| 1777381170 | 20.56° C | 29% | 102.7 hPa | - | - | - | - |
| 1777381104 | 20° C | 28% | 102.7 hPa | - | - | - | - |
| 1777381038 | 18.33° C | 30% | 102.7 hPa | - | - | - | - |
| 1777380972 | 15° C | 33% | 102.7 hPa | - | - | - | - |
| 1777380906 | 15.56° C | 32% | 102.7 hPa | - | - | - | - |
| 1777380840 | 18.89° C | 28% | 102.7 hPa | - | - | - | - |
| 1777380775 | 19.44° C | 27% | 102.7 hPa | - | - | - | - |
| 1777380709 | 19.44° C | 28% | 102.7 hPa | - | - | - | - |
| 1777380643 | 18.89° C | 28% | 102.7 hPa | - | - | - | - |
| 1777380577 | 20.56° C | 27% | 102.7 hPa | - | - | - | - |
| 1777380511 | 20° C | 27% | 102.7 hPa | - | - | - | - |
| 1777380445 | 19.44° C | 27% | 102.7 hPa | - | - | - | - |
| 1777380380 | 19.44° C | 28% | 102.7 hPa | - | - | - | - |
| 1777380314 | 18.89° C | 28% | 102.7 hPa | - | - | - | - |
| 1777380248 | 20° C | 27% | 102.7 hPa | - | - | - | - |
| 1777380182 | 19.44° C | 27% | 102.7 hPa | - | - | - | - |
| 1777380116 | 20.56° C | 28% | 102.7 hPa | - | - | - | - |
| 1777380050 | 18.89° C | 28% | 102.7 hPa | - | - | - | - |
| 1777379985 | 18.89° C | 27% | 102.7 hPa | - | - | - | - |
| 1777379919 | 18.89° C | 27% | 102.7 hPa | - | - | - | - |
| 1777379853 | 18.89° C | 27% | 102.7 hPa | - | - | - | - |
| 1777379787 | 17.78° C | 27% | 102.7 hPa | - | - | - | - |
* Rain since midnight (hover to see other rain measurements)
** Current wind speed in m/s (hover to see current wind gust speed)